Bright Ocean — HOGQ — position and weather

sailwx.info

Track history (hours):
 
Tides and Currents Weather Stations Pressure Air Temp Water Temp Dewpoint Dewpoint Depression Visibility Wind Speed Wind Dir Waves Ship Positions

Bright Ocean

Last reported at 2015-Jun-21 12:28 UTC. Time now 2015-Aug-01 03:33 UTC.
Position N 01°15' E 104°05'.
Warning: this ship's position is 40 days out of date.

Length 178 m; draft 6.3 m.

Type: Cargo ship. MMSI: 373816000.

Date/timePositionNaut miles runAvg speedWind from/ knotsBaromVisibWave heightAir tempDewpointWater temp
2015-Jun-21 12:28N 01°15' E 104°05'1111.6
2015-Jun-21 11:33N 01°14' E 103°55'3 2.2
2015-Jun-21 10:25N 01°15' E 103°53'0 0.0
2015-Jun-21 09:31N 01°15' E 103°53'0 0.0
2015-Jun-21 08:22N 01°15' E 103°53'0 0.0
2015-Jun-21 07:28N 01°15' E 103°53'0 0.0
2015-Jun-21 06:28N 01°15' E 103°53'0 0.0
2015-Jun-21 05:28N 01°15' E 103°53'0 0.1
2015-Jun-21 04:31N 01°15' E 103°53'0 0.0
2015-Jun-21 03:31N 01°15' E 103°53'0 0.1
2015-Jun-21 02:31N 01°15' E 103°53'0 0.0
2015-Jun-21 01:31N 01°15' E 103°53'0 0.1
2015-Jun-21 00:31N 01°15' E 103°53'0 0.1
2015-Jun-20 23:31N 01°15' E 103°53'0 0.1
2015-Jun-20 22:28N 01°15' E 103°53'0 0.1
2015-Jun-20 21:31N 01°15' E 103°53'0 0.1
2015-Jun-20 20:31N 01°15' E 103°53'0 0.0
2015-Jun-20 19:31N 01°15' E 103°53'0 0.0
2015-Jun-20 18:31N 01°15' E 103°53'0 0.1
2015-Jun-20 17:31N 01°15' E 103°53'0 0.2
2015-Jun-20 16:31N 01°15' E 103°53'0 0.0
2015-Jun-20 15:31N 01°15' E 103°53'0 0.0
2015-Jun-20 14:31N 01°15' E 103°53'0 0.0
2015-Jun-20 13:31N 01°15' E 103°53'0 0.0
2015-Jun-20 12:31N 01°15' E 103°53'0 0.0
2015-Jun-20 11:31N 01°15' E 103°53'0 0.0
2015-Jun-20 10:25N 01°15' E 103°53'0 0.1
2015-Jun-20 09:31N 01°15' E 103°53'0 0.1
2015-Jun-20 08:31N 01°15' E 103°53'0 0.0
2015-Jun-20 07:31N 01°15' E 103°53'0 0.1
2015-Jun-20 06:31N 01°15' E 103°53'0 0.0
2015-Jun-20 05:25N 01°15' E 103°53'0 0.1
2015-Jun-20 04:31N 01°15' E 103°53'0 0.0
2015-Jun-20 03:31N 01°15' E 103°53'0 0.0
2015-Jun-20 02:31N 01°15' E 103°53'0 0.1
2015-Jun-20 01:31N 01°15' E 103°53'0 0.1
2015-Jun-20 00:31N 01°15' E 103°53'0 0.1
2015-Jun-19 23:31N 01°15' E 103°53'0 0.0
2015-Jun-19 22:31N 01°15' E 103°53'0 0.0
2015-Jun-19 21:31N 01°15' E 103°53'0 0.1
2015-Jun-19 20:31N 01°15' E 103°53'0 0.0
2015-Jun-19 19:31N 01°15' E 103°53'0 0.1
2015-Jun-19 18:31N 01°15' E 103°53'0 0.0
2015-Jun-19 17:31N 01°15' E 103°53'0 0.1
2015-Jun-19 16:31N 01°15' E 103°53'0 0.1
2015-Jun-19 15:31N 01°15' E 103°53'0 0.0
2015-Jun-19 14:31N 01°15' E 103°53'0 0.0
2015-Jun-19 13:31N 01°15' E 103°53'0 0.0
2015-Jun-19 12:31N 01°15' E 103°53'0 0.0
2015-Jun-19 11:31N 01°15' E 103°53'0 0.0
2015-Jun-19 10:31N 01°15' E 103°53'0 0.1
2015-Jun-19 09:31N 01°15' E 103°53'0 0.0
2015-Jun-19 08:25N 01°15' E 103°53'0 0.0
2015-Jun-19 07:25N 01°15' E 103°53'0 0.0
2015-Jun-19 06:22N 01°15' E 103°53'0 0.1
2015-Jun-19 05:31N 01°15' E 103°53'0 0.1
2015-Jun-19 04:31N 01°15' E 103°53'0 0.0
2015-Jun-19 03:31N 01°15' E 103°53'0 0.0
2015-Jun-19 02:25N 01°15' E 103°53'0 0.1
2015-Jun-19 01:31N 01°15' E 103°53'0 0.0
2015-Jun-19 00:31N 01°15' E 103°53'0 0.1
2015-Jun-18 23:22N 01°15' E 103°53'0 0.1
2015-Jun-18 22:31N 01°15' E 103°53'0 0.1
2015-Jun-18 21:31N 01°15' E 103°53'0 0.1
2015-Jun-18 20:25N 01°15' E 103°53'3 3.9
2015-Jun-18 19:33N 01°12' E 103°51'8 8.5
2015-Jun-18 18:33N 01°17' E 103°44'1 0.1
2015-Jun-18 02:15N 01°18' E 103°43'0 0.0
2015-Jun-18 00:30N 01°18' E 103°43'0 0.0
2015-Jun-17 21:21N 01°18' E 103°43'0 0.0
2015-Jun-17 20:30N 01°18' E 103°43'0 0.0
2015-Jun-17 19:18N 01°18' E 103°43'0 0.0
2015-Jun-17 17:27N 01°18' E 103°43'0 0.0
2015-Jun-17 16:24N 01°18' E 103°43'0 0.0
2015-Jun-17 15:27N 01°18' E 103°43'0 0.0
2015-Jun-17 14:33N 01°18' E 103°43'0 0.0
2015-Jun-17 11:30N 01°18' E 103°43'0 0.0
2015-Jun-17 10:33N 01°18' E 103°43'0 0.0
2015-Jun-17 08:24N 01°18' E 103°43'0 0.0
2015-Jun-17 07:30N 01°18' E 103°43'0 0.0
2015-Jun-17 06:24N 01°18' E 103°43'0 0.0
2015-Jun-17 05:09N 01°18' E 103°43'0 0.0
2015-Jun-17 02:30N 01°18' E 103°43'0 0.0
2015-Jun-17 01:27N 01°18' E 103°43'0 0.0
2015-Jun-17 00:33N 01°18' E 103°43'0 0.0
2015-Jun-16 23:27N 01°18' E 103°43'0 0.0
2015-Jun-16 22:30N 01°18' E 103°43'0 0.0
2015-Jun-16 20:24N 01°18' E 103°43'0 0.0
2015-Jun-16 19:33N 01°18' E 103°43'0 0.0
2015-Jun-16 18:18N 01°18' E 103°43'0 0.0
2015-Jun-16 15:21N 01°18' E 103°43'0 0.0
2015-Jun-16 12:27N 01°18' E 103°43'0 0.0
2015-Jun-16 10:30N 01°18' E 103°43'0 0.0
2015-Jun-16 09:03N 01°18' E 103°43'0 0.0
2015-Jun-16 07:30N 01°18' E 103°43'0 0.0
2015-Jun-16 06:27N 01°18' E 103°43'0 0.0
2015-Jun-16 05:12N 01°18' E 103°43'0 0.0
2015-Jun-16 04:18N 01°18' E 103°43'0 0.0
2015-Jun-16 03:33N 01°18' E 103°43'0 0.0
2015-Jun-16 02:33N 01°18' E 103°43'0 0.0
2015-Jun-16 00:18N 01°18' E 103°43'0 0.0
2015-Jun-15 23:33N 01°18' E 103°43'0 0.0
2015-Jun-15 22:30N 01°18' E 103°43'0 0.0
2015-Jun-15 21:18N 01°18' E 103°43'0 0.0
2015-Jun-15 20:18N 01°18' E 103°43'0 0.0
2015-Jun-15 17:30N 01°18' E 103°43'0 0.0
2015-Jun-15 16:24N 01°18' E 103°43'0 0.0
2015-Jun-15 15:15N 01°18' E 103°43'0 0.0
2015-Jun-15 13:15N 01°18' E 103°43'0 0.0
2015-Jun-15 12:33N 01°18' E 103°43'0 0.0
2015-Jun-15 11:27N 01°18' E 103°43'0 0.0
2015-Jun-15 09:18N 01°18' E 103°43'0 0.0
2015-Jun-15 06:18N 01°18' E 103°43'0 0.0
2015-Jun-15 05:27N 01°18' E 103°43'0 0.0
2015-Jun-15 04:30N 01°18' E 103°43'0 0.0
2015-Jun-15 02:21N 01°18' E 103°43'0 0.0
2015-Jun-15 01:24N 01°18' E 103°43'0 0.0
2015-Jun-15 00:21N 01°18' E 103°43'0 0.0
2015-Jun-14 23:30N 01°18' E 103°43'0 0.0
2015-Jun-14 22:27N 01°18' E 103°43'0 0.0
2015-Jun-14 21:33N 01°18' E 103°43'0 0.0
2015-Jun-14 20:12N 01°18' E 103°43'0 0.0
2015-Jun-14 19:33N 01°18' E 103°43'0 0.0
2015-Jun-14 18:21N 01°18' E 103°43'0 0.0
2015-Jun-14 17:27N 01°18' E 103°43'0 0.0
2015-Jun-14 16:33N 01°18' E 103°43'0 0.0
2015-Jun-14 15:09N 01°18' E 103°43'0 0.0
2015-Jun-14 14:12N 01°18' E 103°43'0 0.0
2015-Jun-14 13:33N 01°18' E 103°43'0 0.0
2015-Jun-14 12:24N 01°18' E 103°43'0 0.0
2015-Jun-14 11:33N 01°18' E 103°43'0 0.0
2015-Jun-14 10:15N 01°18' E 103°43'0 0.0
2015-Jun-14 09:27N 01°18' E 103°43'0 0.0
2015-Jun-14 08:12N 01°18' E 103°43'0 0.0
2015-Jun-14 07:18N 01°18' E 103°43'0 0.0
2015-Jun-14 06:33N 01°18' E 103°43'0 0.0
2015-Jun-14 05:33N 01°18' E 103°43'0 0.0
2015-Jun-14 04:06N 01°18' E 103°43'0 0.0
2015-Jun-14 03:24N 01°18' E 103°43'0 0.0
2015-Jun-14 02:27N 01°18' E 103°43'0 0.0
2015-Jun-13 23:27N 01°18' E 103°43'0 0.0
2015-Jun-13 22:30N 01°18' E 103°43'0 0.0
2015-Jun-13 21:33N 01°18' E 103°43'0 0.0
2015-Jun-13 20:33N 01°18' E 103°43'0 0.0
2015-Jun-13 18:33N 01°18' E 103°43'0 0.0
2015-Jun-13 17:30N 01°18' E 103°43'0 0.0
2015-Jun-13 16:30N 01°18' E 103°43'0 0.0
2015-Jun-13 15:24N 01°18' E 103°43'0 0.0
2015-Jun-13 14:18N 01°18' E 103°43'0 0.0
2015-Jun-13 13:30N 01°18' E 103°43'0 0.0
2015-Jun-13 12:27N 01°18' E 103°43'0 0.0
2015-Jun-13 11:33N 01°18' E 103°43'0 0.0
2015-Jun-13 10:24N 01°18' E 103°43'0 0.0
2015-Jun-13 08:06N 01°18' E 103°43'0 0.0
2015-Jun-13 06:21N 01°18' E 103°43'0 0.0
2015-Jun-13 05:30N 01°18' E 103°43'0 0.0
2015-Jun-13 04:03N 01°18' E 103°43'0 0.0
2015-Jun-13 03:27N 01°18' E 103°43'0 0.0
2015-Jun-13 02:18N 01°18' E 103°43'0 0.0
2015-Jun-13 01:33N 01°18' E 103°43'0 0.0
2015-Jun-13 00:33N 01°18' E 103°43'0 0.0
2015-Jun-12 22:24N 01°18' E 103°43'0 0.0
2015-Jun-12 21:27N 01°18' E 103°43'0 0.0
2015-Jun-12 20:30N 01°18' E 103°43'0 0.0
2015-Jun-12 19:18N 01°18' E 103°43'0 0.0
2015-Jun-12 17:18N 01°18' E 103°43'0 0.0
2015-Jun-12 16:30N 01°18' E 103°43'0 0.0
2015-Jun-12 15:03N 01°18' E 103°43'0 0.0
2015-Jun-12 14:21N 01°18' E 103°43'0 0.0
2015-Jun-12 13:15N 01°18' E 103°43'0 0.0
2015-Jun-12 11:24N 01°18' E 103°43'0 0.0
2015-Jun-12 10:33N 01°18' E 103°43'0 0.0
2015-Jun-12 09:18N 01°18' E 103°43'0 0.0
2015-Jun-12 06:24N 01°18' E 103°43'0 0.0
2015-Jun-12 04:27N 01°18' E 103°43'0 0.0
2015-Jun-12 03:24N 01°18' E 103°43'0 0.0
2015-Jun-12 02:21N 01°18' E 103°43'0 0.0
2015-Jun-12 01:30N 01°18' E 103°43'0 0.0
2015-Jun-12 00:15N 01°18' E 103°43'0 0.0
2015-Jun-11 23:21N 01°18' E 103°43'0 0.0
2015-Jun-11 22:33N 01°18' E 103°43'0 0.0
2015-Jun-11 21:09N 01°18' E 103°43'0 0.0
2015-Jun-11 20:18N 01°18' E 103°43'0 0.0
2015-Jun-11 19:33N 01°18' E 103°43'0 0.0
2015-Jun-11 18:24N 01°18' E 103°43'0 0.0
2015-Jun-11 17:06N 01°18' E 103°43'0 0.0
2015-Jun-11 16:24N 01°18' E 103°43'0 0.0
2015-Jun-11 15:24N 01°18' E 103°43'0 0.0
2015-Jun-11 14:33N 01°18' E 103°43'0 0.0
2015-Jun-11 13:15N 01°18' E 103°43'  
Track history (hours):
 
Tides and Currents Weather Stations Pressure Air Temp Water Temp Dewpoint Dewpoint Depression Visibility Wind Speed Wind Dir Waves Ship Positions

Bright Ocean

Last reported at 2015-Jun-21 12:28 UTC. Time now 2015-Aug-01 03:33 UTC.
Position N 01°15' E 104°05'.
Warning: this ship's position is 40 days out of date.

Length 178 m; draft 6.3 m.

Type: Cargo ship. MMSI: 373816000.

Date/timePositionNaut miles runAvg speedWind from/ knotsBaromVisibWave heightAir tempDewpointWater temp
2015-Jun-21 12:28N 01°15' E 104°05'1111.6
2015-Jun-21 11:33N 01°14' E 103°55'3 2.2
2015-Jun-21 10:25N 01°15' E 103°53'0 0.0
2015-Jun-21 09:31N 01°15' E 103°53'0 0.0
2015-Jun-21 08:22N 01°15' E 103°53'0 0.0
2015-Jun-21 07:28N 01°15' E 103°53'0 0.0
2015-Jun-21 06:28N 01°15' E 103°53'0 0.0
2015-Jun-21 05:28N 01°15' E 103°53'0 0.1
2015-Jun-21 04:31N 01°15' E 103°53'0 0.0
2015-Jun-21 03:31N 01°15' E 103°53'0 0.1
2015-Jun-21 02:31N 01°15' E 103°53'0 0.0
2015-Jun-21 01:31N 01°15' E 103°53'0 0.1
2015-Jun-21 00:31N 01°15' E 103°53'0 0.1
2015-Jun-20 23:31N 01°15' E 103°53'0 0.1
2015-Jun-20 22:28N 01°15' E 103°53'0 0.1
2015-Jun-20 21:31N 01°15' E 103°53'0 0.1
2015-Jun-20 20:31N 01°15' E 103°53'0 0.0
2015-Jun-20 19:31N 01°15' E 103°53'0 0.0
2015-Jun-20 18:31N 01°15' E 103°53'0 0.1
2015-Jun-20 17:31N 01°15' E 103°53'0 0.2
2015-Jun-20 16:31N 01°15' E 103°53'0 0.0
2015-Jun-20 15:31N 01°15' E 103°53'0 0.0
2015-Jun-20 14:31N 01°15' E 103°53'0 0.0
2015-Jun-20 13:31N 01°15' E 103°53'0 0.0
2015-Jun-20 12:31N 01°15' E 103°53'0 0.0
2015-Jun-20 11:31N 01°15' E 103°53'0 0.0
2015-Jun-20 10:25N 01°15' E 103°53'0 0.1
2015-Jun-20 09:31N 01°15' E 103°53'0 0.1
2015-Jun-20 08:31N 01°15' E 103°53'0 0.0
2015-Jun-20 07:31N 01°15' E 103°53'0 0.1
2015-Jun-20 06:31N 01°15' E 103°53'0 0.0
2015-Jun-20 05:25N 01°15' E 103°53'0 0.1
2015-Jun-20 04:31N 01°15' E 103°53'0 0.0
2015-Jun-20 03:31N 01°15' E 103°53'0 0.0
2015-Jun-20 02:31N 01°15' E 103°53'0 0.1
2015-Jun-20 01:31N 01°15' E 103°53'0 0.1
2015-Jun-20 00:31N 01°15' E 103°53'0 0.1
2015-Jun-19 23:31N 01°15' E 103°53'0 0.0
2015-Jun-19 22:31N 01°15' E 103°53'0 0.0
2015-Jun-19 21:31N 01°15' E 103°53'0 0.1
2015-Jun-19 20:31N 01°15' E 103°53'0 0.0
2015-Jun-19 19:31N 01°15' E 103°53'0 0.1
2015-Jun-19 18:31N 01°15' E 103°53'0 0.0
2015-Jun-19 17:31N 01°15' E 103°53'0 0.1
2015-Jun-19 16:31N 01°15' E 103°53'0 0.1
2015-Jun-19 15:31N 01°15' E 103°53'0 0.0
2015-Jun-19 14:31N 01°15' E 103°53'0 0.0
2015-Jun-19 13:31N 01°15' E 103°53'0 0.0
2015-Jun-19 12:31N 01°15' E 103°53'0 0.0
2015-Jun-19 11:31N 01°15' E 103°53'0 0.0
2015-Jun-19 10:31N 01°15' E 103°53'0 0.1
2015-Jun-19 09:31N 01°15' E 103°53'0 0.0
2015-Jun-19 08:25N 01°15' E 103°53'0 0.0
2015-Jun-19 07:25N 01°15' E 103°53'0 0.0
2015-Jun-19 06:22N 01°15' E 103°53'0 0.1
2015-Jun-19 05:31N 01°15' E 103°53'0 0.1
2015-Jun-19 04:31N 01°15' E 103°53'0 0.0
2015-Jun-19 03:31N 01°15' E 103°53'0 0.0
2015-Jun-19 02:25N 01°15' E 103°53'0 0.1
2015-Jun-19 01:31N 01°15' E 103°53'0 0.0
2015-Jun-19 00:31N 01°15' E 103°53'0 0.1
2015-Jun-18 23:22N 01°15' E 103°53'0 0.1
2015-Jun-18 22:31N 01°15' E 103°53'0 0.1
2015-Jun-18 21:31N 01°15' E 103°53'0 0.1
2015-Jun-18 20:25N 01°15' E 103°53'3 3.9
2015-Jun-18 19:33N 01°12' E 103°51'8 8.5
2015-Jun-18 18:33N 01°17' E 103°44'1 0.1
2015-Jun-18 02:15N 01°18' E 103°43'0 0.0
2015-Jun-18 00:30N 01°18' E 103°43'0 0.0
2015-Jun-17 21:21N 01°18' E 103°43'0 0.0
2015-Jun-17 20:30N 01°18' E 103°43'0 0.0
2015-Jun-17 19:18N 01°18' E 103°43'0 0.0
2015-Jun-17 17:27N 01°18' E 103°43'0 0.0
2015-Jun-17 16:24N 01°18' E 103°43'0 0.0
2015-Jun-17 15:27N 01°18' E 103°43'0 0.0
2015-Jun-17 14:33N 01°18' E 103°43'0 0.0
2015-Jun-17 11:30N 01°18' E 103°43'0 0.0
2015-Jun-17 10:33N 01°18' E 103°43'0 0.0
2015-Jun-17 08:24N 01°18' E 103°43'0 0.0
2015-Jun-17 07:30N 01°18' E 103°43'0 0.0
2015-Jun-17 06:24N 01°18' E 103°43'0 0.0
2015-Jun-17 05:09N 01°18' E 103°43'0 0.0
2015-Jun-17 02:30N 01°18' E 103°43'0 0.0
2015-Jun-17 01:27N 01°18' E 103°43'0 0.0
2015-Jun-17 00:33N 01°18' E 103°43'0 0.0
2015-Jun-16 23:27N 01°18' E 103°43'0 0.0
2015-Jun-16 22:30N 01°18' E 103°43'0 0.0
2015-Jun-16 20:24N 01°18' E 103°43'0 0.0
2015-Jun-16 19:33N 01°18' E 103°43'0 0.0
2015-Jun-16 18:18N 01°18' E 103°43'0 0.0
2015-Jun-16 15:21N 01°18' E 103°43'0 0.0
2015-Jun-16 12:27N 01°18' E 103°43'0 0.0
2015-Jun-16 10:30N 01°18' E 103°43'0 0.0
2015-Jun-16 09:03N 01°18' E 103°43'0 0.0
2015-Jun-16 07:30N 01°18' E 103°43'0 0.0
2015-Jun-16 06:27N 01°18' E 103°43'0 0.0
2015-Jun-16 05:12N 01°18' E 103°43'0 0.0
2015-Jun-16 04:18N 01°18' E 103°43'0 0.0
2015-Jun-16 03:33N 01°18' E 103°43'0 0.0
2015-Jun-16 02:33N 01°18' E 103°43'0 0.0
2015-Jun-16 00:18N 01°18' E 103°43'0 0.0
2015-Jun-15 23:33N 01°18' E 103°43'0 0.0
2015-Jun-15 22:30N 01°18' E 103°43'0 0.0
2015-Jun-15 21:18N 01°18' E 103°43'0 0.0
2015-Jun-15 20:18N 01°18' E 103°43'0 0.0
2015-Jun-15 17:30N 01°18' E 103°43'0 0.0
2015-Jun-15 16:24N 01°18' E 103°43'0 0.0
2015-Jun-15 15:15N 01°18' E 103°43'0 0.0
2015-Jun-15 13:15N 01°18' E 103°43'0 0.0
2015-Jun-15 12:33N 01°18' E 103°43'0 0.0
2015-Jun-15 11:27N 01°18' E 103°43'0 0.0
2015-Jun-15 09:18N 01°18' E 103°43'0 0.0
2015-Jun-15 06:18N 01°18' E 103°43'0 0.0
2015-Jun-15 05:27N 01°18' E 103°43'0 0.0
2015-Jun-15 04:30N 01°18' E 103°43'0 0.0
2015-Jun-15 02:21N 01°18' E 103°43'0 0.0
2015-Jun-15 01:24N 01°18' E 103°43'0 0.0
2015-Jun-15 00:21N 01°18' E 103°43'0 0.0
2015-Jun-14 23:30N 01°18' E 103°43'0 0.0
2015-Jun-14 22:27N 01°18' E 103°43'0 0.0
2015-Jun-14 21:33N 01°18' E 103°43'0 0.0
2015-Jun-14 20:12N 01°18' E 103°43'0 0.0
2015-Jun-14 19:33N 01°18' E 103°43'0 0.0
2015-Jun-14 18:21N 01°18' E 103°43'0 0.0
2015-Jun-14 17:27N 01°18' E 103°43'0 0.0
2015-Jun-14 16:33N 01°18' E 103°43'0 0.0
2015-Jun-14 15:09N 01°18' E 103°43'0 0.0
2015-Jun-14 14:12N 01°18' E 103°43'0 0.0
2015-Jun-14 13:33N 01°18' E 103°43'0 0.0
2015-Jun-14 12:24N 01°18' E 103°43'0 0.0
2015-Jun-14 11:33N 01°18' E 103°43'0 0.0
2015-Jun-14 10:15N 01°18' E 103°43'0 0.0
2015-Jun-14 09:27N 01°18' E 103°43'0 0.0
2015-Jun-14 08:12N 01°18' E 103°43'0 0.0
2015-Jun-14 07:18N 01°18' E 103°43'0 0.0
2015-Jun-14 06:33N 01°18' E 103°43'0 0.0
2015-Jun-14 05:33N 01°18' E 103°43'0 0.0
2015-Jun-14 04:06N 01°18' E 103°43'0 0.0
2015-Jun-14 03:24N 01°18' E 103°43'0 0.0
2015-Jun-14 02:27N 01°18' E 103°43'0 0.0
2015-Jun-13 23:27N 01°18' E 103°43'0 0.0
2015-Jun-13 22:30N 01°18' E 103°43'0 0.0
2015-Jun-13 21:33N 01°18' E 103°43'0 0.0
2015-Jun-13 20:33N 01°18' E 103°43'0 0.0
2015-Jun-13 18:33N 01°18' E 103°43'0 0.0
2015-Jun-13 17:30N 01°18' E 103°43'0 0.0
2015-Jun-13 16:30N 01°18' E 103°43'0 0.0
2015-Jun-13 15:24N 01°18' E 103°43'0 0.0
2015-Jun-13 14:18N 01°18' E 103°43'0 0.0
2015-Jun-13 13:30N 01°18' E 103°43'0 0.0
2015-Jun-13 12:27N 01°18' E 103°43'0 0.0
2015-Jun-13 11:33N 01°18' E 103°43'0 0.0
2015-Jun-13 10:24N 01°18' E 103°43'0 0.0
2015-Jun-13 08:06N 01°18' E 103°43'0 0.0
2015-Jun-13 06:21N 01°18' E 103°43'0 0.0
2015-Jun-13 05:30N 01°18' E 103°43'0 0.0
2015-Jun-13 04:03N 01°18' E 103°43'0 0.0
2015-Jun-13 03:27N 01°18' E 103°43'0 0.0
2015-Jun-13 02:18N 01°18' E 103°43'0 0.0
2015-Jun-13 01:33N 01°18' E 103°43'0 0.0
2015-Jun-13 00:33N 01°18' E 103°43'0 0.0
2015-Jun-12 22:24N 01°18' E 103°43'0 0.0
2015-Jun-12 21:27N 01°18' E 103°43'0 0.0
2015-Jun-12 20:30N 01°18' E 103°43'0 0.0
2015-Jun-12 19:18N 01°18' E 103°43'0 0.0
2015-Jun-12 17:18N 01°18' E 103°43'0 0.0
2015-Jun-12 16:30N 01°18' E 103°43'0 0.0
2015-Jun-12 15:03N 01°18' E 103°43'0 0.0
2015-Jun-12 14:21N 01°18' E 103°43'0 0.0
2015-Jun-12 13:15N 01°18' E 103°43'0 0.0
2015-Jun-12 11:24N 01°18' E 103°43'0 0.0
2015-Jun-12 10:33N 01°18' E 103°43'0 0.0
2015-Jun-12 09:18N 01°18' E 103°43'0 0.0
2015-Jun-12 06:24N 01°18' E 103°43'0 0.0
2015-Jun-12 04:27N 01°18' E 103°43'0 0.0
2015-Jun-12 03:24N 01°18' E 103°43'0 0.0
2015-Jun-12 02:21N 01°18' E 103°43'0 0.0
2015-Jun-12 01:30N 01°18' E 103°43'0 0.0
2015-Jun-12 00:15N 01°18' E 103°43'0 0.0
2015-Jun-11 23:21N 01°18' E 103°43'0 0.0
2015-Jun-11 22:33N 01°18' E 103°43'0 0.0
2015-Jun-11 21:09N 01°18' E 103°43'0 0.0
2015-Jun-11 20:18N 01°18' E 103°43'0 0.0
2015-Jun-11 19:33N 01°18' E 103°43'0 0.0
2015-Jun-11 18:24N 01°18' E 103°43'0 0.0
2015-Jun-11 17:06N 01°18' E 103°43'0 0.0
2015-Jun-11 16:24N 01°18' E 103°43'0 0.0
2015-Jun-11 15:24N 01°18' E 103°43'0 0.0
2015-Jun-11 14:33N 01°18' E 103°43'0 0.0
2015-Jun-11 13:15N 01°18' E 103°43'  

Dump ship's entire track history